createdAt,value
2019-03-21T00:00:17.506Z,46.57
2019-03-21T00:02:46.983Z,51.40
2019-03-21T00:05:16.780Z,54.77
2019-03-21T00:07:46.182Z,44.03
2019-03-21T00:10:49.618Z,45.00
2019-03-21T00:13:19.991Z,46.17
2019-03-21T00:15:51.404Z,46.93
2019-03-21T00:18:20.993Z,47.77
2019-03-21T00:20:51.130Z,45.53
2019-03-21T00:23:22.579Z,44.07
2019-03-21T00:25:52.214Z,46.17
2019-03-21T00:28:22.542Z,48.83
2019-03-21T00:30:52.351Z,51.43
2019-03-21T00:33:22.703Z,56.53
2019-03-21T00:35:52.247Z,47.77
2019-03-21T00:38:22.570Z,46.73
2019-03-21T00:40:52.960Z,44.90
2019-03-21T00:43:23.283Z,43.43
2019-03-21T00:45:53.747Z,41.43
2019-03-21T00:48:24.075Z,41.57
2019-03-21T00:50:53.621Z,48.90
2019-03-21T00:53:23.780Z,47.23
2019-03-21T00:55:54.223Z,46.53
2019-03-21T00:58:24.633Z,46.90
2019-03-21T01:00:54.782Z,47.73
2019-03-21T01:03:24.221Z,45.50
2019-03-21T01:05:55.221Z,42.37
2019-03-21T01:08:24.743Z,42.63
2019-03-21T01:10:57.116Z,46.17
2019-03-21T01:13:30.125Z,50.97
2019-03-21T01:16:00.453Z,46.47
2019-03-21T01:18:30.686Z,63.17
2019-03-21T01:21:00.245Z,58.83
2019-03-21T01:23:29.648Z,65.60
2019-03-21T01:25:59.373Z,49.03
2019-03-21T01:28:28.860Z,45.00
2019-03-21T01:30:58.988Z,46.60
2019-03-21T01:33:29.193Z,46.73
2019-03-21T01:35:58.715Z,50.27
2019-03-21T01:38:28.920Z,49.90
2019-03-21T01:40:59.245Z,49.37
2019-03-21T01:43:29.633Z,50.17
2019-03-21T01:45:59.961Z,49.30
2019-03-21T01:48:29.479Z,48.70
2019-03-21T01:50:59.368Z,53.33
2019-03-21T01:53:29.505Z,49.37
2019-03-21T01:55:59.725Z,47.90
2019-03-21T01:58:30.015Z,50.73
2019-03-21T02:01:00.368Z,54.77
2019-03-21T02:03:30.654Z,48.90
2019-03-21T02:06:00.275Z,54.60
2019-03-21T02:08:29.700Z,49.60
2019-03-21T02:10:59.964Z,55.10
2019-03-21T02:13:31.132Z,54.60
2019-03-21T02:16:01.443Z,59.47
2019-03-21T02:18:31.777Z,56.07
2019-03-21T02:21:02.031Z,57.17
2019-03-21T02:23:33.451Z,54.23
2019-03-21T02:26:03.740Z,58.93
2019-03-21T02:28:33.937Z,53.93
2019-03-21T02:31:04.304Z,52.90
2019-03-21T02:33:34.736Z,53.17
2019-03-21T02:36:05.144Z,57.07
2019-03-21T02:38:46.763Z,60.50
2019-03-21T02:41:25.513Z,59.97
2019-03-21T02:43:55.076Z,51.00
2019-03-21T02:46:25.315Z,52.90
2019-03-21T02:48:55.618Z,57.63
2019-03-21T02:51:27.420Z,49.27
2019-03-21T02:53:56.952Z,49.50
2019-03-21T02:56:26.579Z,53.70
2019-03-21T02:58:56.185Z,53.40
2019-03-21T03:01:26.359Z,54.60
2019-03-21T03:03:56.686Z,55.80
2019-03-21T03:06:27.054Z,57.93
2019-03-21T03:08:57.306Z,49.37
2019-03-21T03:11:27.532Z,53.90
2019-03-21T03:13:58.498Z,56.77
2019-03-21T03:16:28.819Z,52.73
2019-03-21T03:19:00.309Z,57.40
2019-03-21T03:21:30.495Z,51.07
2019-03-21T03:24:00.147Z,52.60
2019-03-21T03:26:30.332Z,51.80
2019-03-21T03:29:00.517Z,56.43
2019-03-21T03:31:30.072Z,51.90
2019-03-21T03:33:59.577Z,53.17
2019-03-21T03:36:30.066Z,56.27
2019-03-21T03:39:00.292Z,46.50
2019-03-21T03:41:30.697Z,56.13
2019-03-21T03:44:00.994Z,50.33
2019-03-21T03:46:31.279Z,52.43
2019-03-21T03:49:01.646Z,53.30
2019-03-21T03:51:31.908Z,52.30
2019-03-21T03:54:02.173Z,52.43
2019-03-21T03:56:32.575Z,51.17
2019-03-21T03:59:02.344Z,53.47
2019-03-21T04:01:32.598Z,52.77
2019-03-21T04:04:02.980Z,61.33
2019-03-21T04:06:32.613Z,57.63
2019-03-21T04:09:02.082Z,59.00
2019-03-21T04:11:32.423Z,57.30
2019-03-21T04:14:01.930Z,58.23
2019-03-21T04:16:32.119Z,54.43
2019-03-21T04:19:01.689Z,53.27
2019-03-21T04:21:31.798Z,51.03
2019-03-21T04:24:02.327Z,56.77
2019-03-21T04:26:32.780Z,57.80
2019-03-21T04:29:02.354Z,50.40
2019-03-21T04:31:32.585Z,52.23
2019-03-21T04:34:02.837Z,51.70
2019-03-21T04:36:33.020Z,52.10
2019-03-21T04:39:04.458Z,56.63
2019-03-21T04:41:34.720Z,63.57
2019-03-21T04:44:05.018Z,58.93
2019-03-21T04:46:35.280Z,60.77
2019-03-21T04:49:05.580Z,69.43
2019-03-21T04:51:35.805Z,65.07
2019-03-21T04:54:05.333Z,64.93
2019-03-21T04:56:34.775Z,67.90
2019-03-21T04:59:04.366Z,76.57
2019-03-21T05:01:34.445Z,68.77
2019-03-21T05:04:04.989Z,72.80
2019-03-21T05:06:34.478Z,72.90
2019-03-21T05:09:05.535Z,72.73
2019-03-21T05:11:35.729Z,74.73
2019-03-21T05:14:06.007Z,76.40
2019-03-21T05:16:36.218Z,77.10
2019-03-21T05:19:06.529Z,82.93
2019-03-21T05:21:36.706Z,73.23
2019-03-21T05:24:06.241Z,79.57
2019-03-21T05:26:36.431Z,81.70
2019-03-21T05:29:06.666Z,79.20
2019-03-21T05:31:36.271Z,82.13
2019-03-21T05:34:05.729Z,82.53
2019-03-21T05:36:35.868Z,86.07
2019-03-21T05:39:09.621Z,80.27
2019-03-21T05:41:39.802Z,85.23
2019-03-21T05:44:17.498Z,80.40
2019-03-21T05:46:47.790Z,84.27
2019-03-21T05:49:18.009Z,83.97
2019-03-21T05:51:47.507Z,77.60
2019-03-21T05:54:16.897Z,88.27
2019-03-21T05:56:46.296Z,85.17
2019-03-21T05:59:16.677Z,87.33
2019-03-21T06:01:46.187Z,85.47
2019-03-21T06:04:15.607Z,87.80
2019-03-21T06:06:54.206Z,83.80
2019-03-21T06:09:24.466Z,95.33
2019-03-21T06:11:57.082Z,93.53
2019-03-21T06:14:26.957Z,93.80
2019-03-21T06:16:56.479Z,94.00
2019-03-21T06:20:04.003Z,93.07
2019-03-21T06:22:48.148Z,99.63
2019-03-21T06:25:26.912Z,99.70
2019-03-21T06:27:56.547Z,96.67
2019-03-21T06:30:26.853Z,103.23
2019-03-21T06:32:56.383Z,106.03
2019-03-21T06:35:26.521Z,102.23
2019-03-21T06:37:56.985Z,100.83
2019-03-21T06:40:27.401Z,101.23
2019-03-21T06:42:57.678Z,108.67
2019-03-21T06:45:27.950Z,106.03
2019-03-21T06:47:57.437Z,105.27
2019-03-21T06:50:26.883Z,107.03
2019-03-21T06:52:56.291Z,104.80
2019-03-21T06:55:25.828Z,103.67
2019-03-21T06:57:55.950Z,102.17
2019-03-21T07:00:25.483Z,104.03
2019-03-21T07:02:55.611Z,103.63
2019-03-21T07:05:26.856Z,100.47
2019-03-21T07:07:56.563Z,102.03
2019-03-21T07:10:26.761Z,97.73
2019-03-21T07:12:56.234Z,101.67
2019-03-21T07:15:26.374Z,102.73
2019-03-21T07:17:56.576Z,105.23
2019-03-21T07:20:26.755Z,94.67
2019-03-21T07:22:56.218Z,98.33
2019-03-21T07:25:26.464Z,100.33
2019-03-21T07:27:55.989Z,95.00
2019-03-21T07:30:26.098Z,87.80
2019-03-21T07:32:56.262Z,94.67
2019-03-21T07:35:26.490Z,99.80
2019-03-21T07:37:56.752Z,88.37
2019-03-21T07:40:27.004Z,95.57
2019-03-21T07:42:56.522Z,92.20
2019-03-21T07:45:26.620Z,95.37
2019-03-21T07:47:56.778Z,99.97
2019-03-21T07:50:26.989Z,94.23
2019-03-21T07:52:56.489Z,94.70
2019-03-21T07:55:26.305Z,103.27
2019-03-21T07:57:55.955Z,99.27
2019-03-21T08:00:26.399Z,96.57
2019-03-21T08:02:56.527Z,100.47
2019-03-21T08:05:26.736Z,94.27
2019-03-21T08:07:56.327Z,93.40
2019-03-21T08:10:26.381Z,95.13
2019-03-21T08:12:56.599Z,95.83
2019-03-21T08:15:26.819Z,94.53
2019-03-21T08:17:56.354Z,88.70
2019-03-21T08:20:26.462Z,95.93
2019-03-21T08:22:56.663Z,85.23
2019-03-21T08:25:26.143Z,85.63
2019-03-21T08:27:56.354Z,75.73
2019-03-21T08:30:32.894Z,90.10
2019-03-21T08:33:03.156Z,86.30
2019-03-21T08:35:32.856Z,81.50
2019-03-21T08:38:02.319Z,78.10
2019-03-21T08:40:32.492Z,83.77
2019-03-21T08:43:02.784Z,81.80
2019-03-21T08:45:32.311Z,79.13
2019-03-21T08:48:01.722Z,80.93
2019-03-21T08:50:31.875Z,86.67
2019-03-21T08:53:02.095Z,77.33
2019-03-21T08:55:31.730Z,79.33
2019-03-21T08:58:02.302Z,80.90
2019-03-21T09:00:34.525Z,78.50
2019-03-21T09:03:04.498Z,73.47
2019-03-21T09:05:34.069Z,78.47
2019-03-21T09:08:04.422Z,73.33
2019-03-21T09:10:34.678Z,72.70
2019-03-21T09:13:05.123Z,72.73
2019-03-21T09:15:35.366Z,69.17
2019-03-21T09:18:05.662Z,70.80
2019-03-21T09:20:35.838Z,66.90
2019-03-21T09:23:06.123Z,65.37
2019-03-21T09:25:36.410Z,69.73
2019-03-21T09:28:06.584Z,62.47
2019-03-21T09:30:36.011Z,63.53
2019-03-21T09:33:06.180Z,65.97
2019-03-21T09:35:35.694Z,63.07
2019-03-21T09:38:07.724Z,71.50
2019-03-21T09:40:37.291Z,70.27
2019-03-21T09:43:06.706Z,71.27
2019-03-21T09:45:37.958Z,75.00
2019-03-21T09:48:08.255Z,78.50
2019-03-21T09:50:38.524Z,70.37
2019-03-21T09:53:09.051Z,83.60
2019-03-21T09:55:38.683Z,81.40
2019-03-21T09:58:08.066Z,76.97
2019-03-21T10:00:38.392Z,80.17
2019-03-21T10:03:08.582Z,78.33
2019-03-21T10:05:38.093Z,76.07
2019-03-21T10:08:07.607Z,81.17
2019-03-21T10:10:37.763Z,84.70
2019-03-21T10:13:07.334Z,76.00
2019-03-21T10:15:37.476Z,76.47
2019-03-21T10:18:07.735Z,82.23
2019-03-21T10:20:37.919Z,75.27
2019-03-21T10:23:08.090Z,77.60
2019-03-21T10:25:38.239Z,71.97
2019-03-21T10:28:08.439Z,75.20
2019-03-21T10:30:39.009Z,78.43
2019-03-21T10:33:09.194Z,70.53
2019-03-21T10:35:38.699Z,73.33
2019-03-21T10:38:09.001Z,75.43
2019-03-21T10:40:39.990Z,70.93
2019-03-21T10:43:10.802Z,70.17
2019-03-21T10:45:42.302Z,67.13
2019-03-21T10:48:12.974Z,77.23
2019-03-21T10:50:44.346Z,77.53
2019-03-21T10:53:14.868Z,87.53
2019-03-21T10:55:44.474Z,73.27
2019-03-21T10:58:14.624Z,71.10
2019-03-21T11:00:44.206Z,67.30
2019-03-21T11:03:13.930Z,61.93
2019-03-21T11:05:44.116Z,63.40
2019-03-21T11:08:14.327Z,61.30
2019-03-21T11:10:47.117Z,62.30
2019-03-21T11:13:16.920Z,56.50
2019-03-21T11:15:47.200Z,58.97
2019-03-21T11:18:17.748Z,60.53
2019-03-21T11:20:47.944Z,62.70
2019-03-21T11:23:18.268Z,58.67
2019-03-21T11:25:47.907Z,59.37
2019-03-21T11:28:18.002Z,57.53
2019-03-21T11:30:48.422Z,60.20
2019-03-21T11:33:20.947Z,63.43
2019-03-21T11:35:50.492Z,61.17
2019-03-21T11:38:20.656Z,63.77
2019-03-21T11:40:50.953Z,62.57
2019-03-21T11:43:21.372Z,65.13
2019-03-21T11:45:51.818Z,57.37
2019-03-21T11:48:22.241Z,56.60
2019-03-21T11:50:52.471Z,60.93
2019-03-21T11:53:22.851Z,55.67
2019-03-21T11:55:52.653Z,51.60
2019-03-21T11:58:22.151Z,59.43
2019-03-21T12:00:52.276Z,53.70
2019-03-21T12:03:24.315Z,53.97
2019-03-21T12:05:54.660Z,56.33
2019-03-21T12:08:24.264Z,56.00
2019-03-21T12:10:54.451Z,54.93
2019-03-21T12:13:25.761Z,53.73
2019-03-21T12:15:55.971Z,49.87
2019-03-21T12:18:26.243Z,50.97
2019-03-21T12:20:56.514Z,50.27
2019-03-21T12:23:26.079Z,48.57
2019-03-21T12:25:56.226Z,51.30
2019-03-21T12:28:26.462Z,47.90
2019-03-21T12:30:56.714Z,48.67
2019-03-21T12:33:26.234Z,50.43
2019-03-21T12:35:56.514Z,49.43
2019-03-21T12:38:26.883Z,45.60
2019-03-21T12:40:57.206Z,47.77
2019-03-21T12:43:29.668Z,46.67
2019-03-21T12:46:00.257Z,46.93
2019-03-21T12:48:30.829Z,46.60
2019-03-21T12:51:01.055Z,51.90
2019-03-21T12:53:31.322Z,48.10
2019-03-21T12:56:00.952Z,51.03
2019-03-21T12:58:30.529Z,50.40
2019-03-21T13:01:00.794Z,48.27
2019-03-21T13:03:31.039Z,51.07
2019-03-21T13:06:00.604Z,46.40
2019-03-21T13:08:33.975Z,49.37
2019-03-21T13:11:02.116Z,51.27
2019-03-21T13:13:32.246Z,50.03
2019-03-21T13:16:02.873Z,50.93
2019-03-21T13:18:34.110Z,51.83
2019-03-21T13:21:04.410Z,52.20
2019-03-21T13:23:33.972Z,54.70
2019-03-21T13:26:03.533Z,53.57
2019-03-21T13:28:33.744Z,44.73
2019-03-21T13:31:03.352Z,48.87
2019-03-21T13:33:32.952Z,50.97
2019-03-21T13:36:02.518Z,50.63
2019-03-21T13:38:32.781Z,49.07
2019-03-21T13:41:02.358Z,45.73
2019-03-21T13:43:32.557Z,49.33
2019-03-21T13:46:02.933Z,49.60
2019-03-21T13:48:33.351Z,62.13
2019-03-21T13:51:03.709Z,60.40
2019-03-21T13:53:34.059Z,48.07
2019-03-21T13:56:04.403Z,53.70
2019-03-21T13:58:34.760Z,50.43
2019-03-21T14:01:04.371Z,48.17
2019-03-21T14:03:35.135Z,49.23
2019-03-21T14:06:04.742Z,47.40
2019-03-21T14:08:34.256Z,46.30
2019-03-21T14:11:04.610Z,47.47
2019-03-21T14:13:34.996Z,48.33
2019-03-21T14:16:04.515Z,51.47
2019-03-21T14:18:34.750Z,53.20
2019-03-21T14:21:05.492Z,50.70
2019-03-21T14:23:43.259Z,51.23
2019-03-21T14:26:07.887Z,53.37
2019-03-21T14:28:38.330Z,49.83
2019-03-21T14:31:08.749Z,52.03
2019-03-21T14:33:38.719Z,55.50
2019-03-21T14:36:08.857Z,55.83
2019-03-21T14:38:39.098Z,54.63
2019-03-21T14:41:08.717Z,49.20
2019-03-21T14:43:38.979Z,57.13
2019-03-21T14:46:09.665Z,53.40
2019-03-21T14:48:40.081Z,54.40
2019-03-21T14:51:09.682Z,55.43
2019-03-21T14:53:39.908Z,59.47
2019-03-21T14:56:10.271Z,59.50
2019-03-21T14:58:40.750Z,58.77
2019-03-21T15:01:10.373Z,63.70
2019-03-21T15:03:40.835Z,59.40
2019-03-21T15:06:10.403Z,65.87
2019-03-21T15:08:40.735Z,64.07
2019-03-21T15:11:16.976Z,64.80
2019-03-21T15:13:42.953Z,66.57
2019-03-21T15:16:12.833Z,68.87
2019-03-21T15:18:43.151Z,69.27
2019-03-21T15:21:13.687Z,72.77
2019-03-21T15:23:44.002Z,68.30
2019-03-21T15:26:14.333Z,72.10
2019-03-21T15:28:44.727Z,86.53
2019-03-21T15:31:14.989Z,75.07
2019-03-21T15:33:44.522Z,76.53
2019-03-21T15:36:14.743Z,80.47
2019-03-21T15:38:45.247Z,71.47
2019-03-21T15:41:15.544Z,75.67
2019-03-21T15:43:45.118Z,75.27
2019-03-21T15:46:15.432Z,77.93
2019-03-21T15:48:45.972Z,81.63
2019-03-21T15:51:16.280Z,79.57
2019-03-21T15:53:54.533Z,76.67
2019-03-21T15:56:17.791Z,77.90
2019-03-21T15:58:48.338Z,80.63
2019-03-21T16:01:18.560Z,78.03
2019-03-21T16:03:50.008Z,80.87
2019-03-21T16:06:20.586Z,79.70
2019-03-21T16:08:53.921Z,72.10
2019-03-21T16:11:28.586Z,74.67
2019-03-21T16:13:58.826Z,70.80
2019-03-21T16:16:28.624Z,78.30
2019-03-21T16:18:58.187Z,63.43
2019-03-21T16:21:28.350Z,65.07
2019-03-21T16:24:04.995Z,59.23
2019-03-21T16:26:30.636Z,57.13
2019-03-21T16:29:00.174Z,48.60
2019-03-21T16:31:30.400Z,47.47
2019-03-21T16:34:00.706Z,44.00
2019-03-21T16:36:31.183Z,40.63
2019-03-21T16:39:01.447Z,39.30
2019-03-21T16:41:31.571Z,37.87
2019-03-21T16:44:01.752Z,37.57
2019-03-21T16:46:31.407Z,38.57
2019-03-21T16:49:01.504Z,39.70
2019-03-21T16:51:31.119Z,40.57
2019-03-21T16:54:01.195Z,41.53
2019-03-21T16:56:31.419Z,41.83
2019-03-21T16:59:00.933Z,41.40
2019-03-21T17:01:30.444Z,42.90
2019-03-21T17:04:00.853Z,46.63
2019-03-21T17:06:30.403Z,44.17
2019-03-21T17:09:00.692Z,40.83
2019-03-21T17:11:31.707Z,43.50
2019-03-21T17:14:02.263Z,42.83
2019-03-21T17:16:32.581Z,45.63
2019-03-21T17:19:02.817Z,43.40
2019-03-21T17:21:32.744Z,44.23
2019-03-21T17:24:02.225Z,44.77
2019-03-21T17:26:32.476Z,49.57
2019-03-21T17:29:02.046Z,51.00
2019-03-21T17:31:32.289Z,49.30
2019-03-21T17:34:03.958Z,53.67
2019-03-21T17:36:32.912Z,47.03
2019-03-21T17:39:05.086Z,53.03
2019-03-21T17:41:35.306Z,49.57
2019-03-21T17:44:05.786Z,53.37
2019-03-21T17:46:36.159Z,52.33
2019-03-21T17:49:07.518Z,54.27
2019-03-21T17:51:40.259Z,50.20
2019-03-21T17:54:10.510Z,53.23
2019-03-21T17:56:40.105Z,55.37
2019-03-21T17:59:10.263Z,53.50
2019-03-21T18:01:40.585Z,51.70
2019-03-21T18:04:11.324Z,52.10
2019-03-21T18:06:41.001Z,54.63
2019-03-21T18:09:11.257Z,58.80
2019-03-21T18:11:40.771Z,55.63
2019-03-21T18:14:10.960Z,52.87
2019-03-21T18:16:41.328Z,54.67
2019-03-21T18:19:10.855Z,53.73
2019-03-21T18:21:41.275Z,62.50
2019-03-21T18:24:10.821Z,55.77
2019-03-21T18:26:40.353Z,52.90
2019-03-21T18:29:09.915Z,54.70
2019-03-21T18:31:40.466Z,54.90
2019-03-21T18:34:09.887Z,58.30
2019-03-21T18:37:03.972Z,59.47
2019-03-21T18:39:37.900Z,53.97
2019-03-21T18:42:08.244Z,61.23
2019-03-21T18:45:09.795Z,52.60
2019-03-21T18:47:40.474Z,62.60
2019-03-21T18:50:10.600Z,54.37
2019-03-21T18:52:40.833Z,61.57
2019-03-21T18:55:10.950Z,60.17
2019-03-21T18:57:40.515Z,63.27
2019-03-21T19:00:11.512Z,55.77
2019-03-21T19:02:41.988Z,57.57
2019-03-21T19:05:12.529Z,57.93
2019-03-21T19:07:45.943Z,61.73
2019-03-21T19:10:16.944Z,61.67
2019-03-21T19:12:47.232Z,60.33
2019-03-21T19:15:16.935Z,61.30
2019-03-21T19:17:48.242Z,61.47
2019-03-21T19:20:18.924Z,57.00
2019-03-21T19:22:49.256Z,57.57
2019-03-21T19:25:20.083Z,62.57
2019-03-21T19:27:49.757Z,60.83
2019-03-21T19:30:19.355Z,62.00
2019-03-21T19:32:49.635Z,66.10
2019-03-21T19:35:19.931Z,67.43
2019-03-21T19:37:50.274Z,65.03
2019-03-21T19:40:21.220Z,64.63
2019-03-21T19:42:51.646Z,64.17
2019-03-21T19:45:22.586Z,67.77
2019-03-21T19:47:52.251Z,60.80
2019-03-21T19:50:23.321Z,62.90
2019-03-21T19:52:53.649Z,68.97
2019-03-21T19:55:30.749Z,62.10
2019-03-21T19:57:55.886Z,67.77
2019-03-21T20:00:25.531Z,63.50
2019-03-21T20:02:55.137Z,64.47
2019-03-21T20:05:24.607Z,65.00
2019-03-21T20:07:54.853Z,67.33
2019-03-21T20:10:24.827Z,64.77
2019-03-21T20:12:54.269Z,64.70
2019-03-21T20:15:25.360Z,62.40
2019-03-21T20:17:55.671Z,63.87
2019-03-21T20:20:25.972Z,64.23
2019-03-21T20:22:56.230Z,65.60
2019-03-21T20:25:25.759Z,63.57
2019-03-21T20:27:55.878Z,73.93
2019-03-21T20:30:25.472Z,67.70
2019-03-21T20:32:55.731Z,71.63
2019-03-21T20:35:26.057Z,71.07
2019-03-21T20:37:56.259Z,76.93
2019-03-21T20:40:25.794Z,67.57
2019-03-21T20:42:55.944Z,73.57
2019-03-21T20:45:26.278Z,82.73
2019-03-21T20:47:56.632Z,79.47
2019-03-21T20:50:26.987Z,78.53
2019-03-21T20:52:57.225Z,78.47
2019-03-21T20:55:27.448Z,77.43
2019-03-21T20:57:58.523Z,74.80
2019-03-21T21:00:28.042Z,73.33
2019-03-21T21:02:58.485Z,77.83
2019-03-21T21:05:28.210Z,85.23
2019-03-21T21:07:58.610Z,86.27
2019-03-21T21:10:33.610Z,80.80
2019-03-21T21:13:04.493Z,87.70
2019-03-21T21:15:33.937Z,82.53
2019-03-21T21:18:03.675Z,82.23
2019-03-21T21:20:33.879Z,79.43
2019-03-21T21:23:03.753Z,84.93
2019-03-21T21:25:34.475Z,90.80
2019-03-21T21:28:04.890Z,88.77
2019-03-21T21:30:34.584Z,74.57
2019-03-21T21:33:04.346Z,79.30
2019-03-21T21:35:34.535Z,79.70
2019-03-21T21:38:04.127Z,76.97
2019-03-21T21:40:34.139Z,80.43
2019-03-21T21:43:03.655Z,76.73
2019-03-21T21:45:33.726Z,79.30
2019-03-21T21:48:04.058Z,86.60
2019-03-21T21:50:34.283Z,81.27
2019-03-21T21:53:04.529Z,86.43
2019-03-21T21:55:34.093Z,76.93
2019-03-21T21:58:04.573Z,80.03
2019-03-21T22:00:34.706Z,81.67
2019-03-21T22:03:05.435Z,76.00
2019-03-21T22:05:35.053Z,75.17
2019-03-21T22:08:04.480Z,79.17
2019-03-21T22:10:35.162Z,78.93
2019-03-21T22:13:05.483Z,75.97
2019-03-21T22:15:35.729Z,69.80
2019-03-21T22:18:06.001Z,77.70
2019-03-21T22:20:36.190Z,74.30
2019-03-21T22:23:06.454Z,77.43
2019-03-21T22:25:36.248Z,77.47
2019-03-21T22:28:06.376Z,81.37
2019-03-21T22:30:36.019Z,81.17
2019-03-21T22:33:05.934Z,75.83
2019-03-21T22:35:36.045Z,75.00
2019-03-21T22:38:06.299Z,73.97
2019-03-21T22:40:36.894Z,79.47
2019-03-21T22:43:06.506Z,75.57
2019-03-21T22:45:36.017Z,80.37
2019-03-21T22:48:05.499Z,85.67
2019-03-21T22:50:35.755Z,78.37
2019-03-21T22:53:06.138Z,85.53
2019-03-21T22:55:36.463Z,92.33
2019-03-21T22:58:05.990Z,85.07
2019-03-21T23:00:44.555Z,80.33
2019-03-21T23:03:14.467Z,77.40
2019-03-21T23:05:44.665Z,82.13
2019-03-21T23:08:14.603Z,87.23
2019-03-21T23:10:45.192Z,81.93
2019-03-21T23:13:14.870Z,77.40
2019-03-21T23:15:44.421Z,80.07
2019-03-21T23:18:13.953Z,77.43
2019-03-21T23:20:43.383Z,77.33
2019-03-21T23:23:13.633Z,80.93
2019-03-21T23:25:43.901Z,80.10
2019-03-21T23:28:14.243Z,84.40
2019-03-21T23:30:43.795Z,87.53
2019-03-21T23:33:13.253Z,86.10
2019-03-21T23:35:42.802Z,84.43
2019-03-21T23:38:12.992Z,81.40
2019-03-21T23:40:42.600Z,82.57
2019-03-21T23:43:12.824Z,89.27
2019-03-21T23:45:42.503Z,87.77
2019-03-21T23:48:12.654Z,92.60
2019-03-21T23:50:42.239Z,82.03
2019-03-21T23:53:11.736Z,73.50
2019-03-21T23:55:42.233Z,72.20
2019-03-21T23:58:12.417Z,65.77
